createdAt,value
2022-11-21T00:00:17.446Z,30.90
2022-11-21T00:01:17.378Z,31.30
2022-11-21T00:02:17.471Z,27.60
2022-11-21T00:03:17.368Z,30.30
2022-11-21T00:04:17.384Z,30.90
2022-11-21T00:05:17.339Z,30.50
2022-11-21T00:06:17.340Z,31.30
2022-11-21T00:07:17.450Z,31.90
2022-11-21T00:08:17.306Z,32.10
2022-11-21T00:09:17.304Z,33.10
2022-11-21T00:10:17.296Z,32.10
2022-11-21T00:11:17.296Z,34.30
2022-11-21T00:12:17.282Z,35.40
2022-11-21T00:13:17.249Z,37.30
2022-11-21T00:14:17.241Z,38.90
2022-11-21T00:15:17.226Z,33.70
2022-11-21T00:16:17.240Z,31.20
2022-11-21T00:17:17.201Z,32.80
2022-11-21T00:18:17.198Z,28.80
2022-11-21T00:19:17.185Z,33.90
2022-11-21T00:20:17.184Z,31.30
2022-11-21T00:21:17.178Z,34.00
2022-11-21T00:22:17.197Z,30.50
2022-11-21T00:23:17.172Z,32.60
2022-11-21T00:24:17.136Z,33.30
2022-11-21T00:25:17.118Z,32.60
2022-11-21T00:26:17.137Z,32.80
2022-11-21T00:27:17.109Z,32.40
2022-11-21T00:28:17.088Z,37.40
2022-11-21T00:29:17.092Z,33.80
2022-11-21T00:30:17.058Z,33.30
2022-11-21T00:31:17.055Z,32.70
2022-11-21T00:32:17.062Z,31.70
2022-11-21T00:33:25.593Z,31.80
2022-11-21T00:34:17.026Z,35.00
2022-11-21T00:35:17.013Z,32.40
2022-11-21T00:36:17.008Z,31.40
2022-11-21T00:37:17.627Z,31.50
2022-11-21T00:38:16.986Z,31.30
2022-11-21T00:39:16.978Z,35.00
2022-11-21T00:40:16.955Z,31.50
2022-11-21T00:41:16.961Z,31.70
2022-11-21T00:42:16.953Z,35.80
2022-11-21T00:43:16.920Z,36.90
2022-11-21T00:44:16.936Z,37.70
2022-11-21T00:45:22.700Z,39.60
2022-11-21T00:46:16.906Z,37.80
2022-11-21T00:47:16.893Z,38.80
2022-11-21T00:48:16.869Z,34.10
2022-11-21T00:49:16.874Z,34.10
2022-11-21T00:50:16.862Z,36.30
2022-11-21T00:51:16.831Z,35.90
2022-11-21T00:52:16.838Z,33.10
2022-11-21T00:53:16.811Z,33.90
2022-11-21T00:54:16.825Z,37.20
2022-11-21T00:55:16.817Z,36.10
2022-11-21T00:56:16.787Z,32.10
2022-11-21T00:57:16.778Z,30.70
2022-11-21T00:58:16.783Z,34.10
2022-11-21T00:59:16.751Z,32.20
2022-11-21T01:00:16.773Z,34.10
2022-11-21T01:01:16.819Z,33.60
2022-11-21T01:02:16.748Z,35.80
2022-11-21T01:03:16.726Z,33.30
2022-11-21T01:04:16.740Z,37.30
2022-11-21T01:05:16.701Z,35.90
2022-11-21T01:06:16.678Z,34.90
2022-11-21T01:07:16.733Z,34.30
2022-11-21T01:08:16.649Z,35.20
2022-11-21T01:09:16.654Z,37.40
2022-11-21T01:10:16.649Z,33.80
2022-11-21T01:11:16.622Z,35.20
2022-11-21T01:12:16.622Z,32.80
2022-11-21T01:13:16.599Z,35.10
2022-11-21T01:14:16.607Z,33.30
2022-11-21T01:15:16.610Z,34.40
2022-11-21T01:16:16.575Z,31.80
2022-11-21T01:17:16.558Z,31.30
2022-11-21T01:18:16.546Z,33.70
2022-11-21T01:19:16.551Z,34.30
2022-11-21T01:20:16.536Z,33.70
2022-11-21T01:21:16.517Z,32.30
2022-11-21T01:22:16.522Z,33.90
2022-11-21T01:23:16.503Z,33.90
2022-11-21T01:24:16.502Z,33.00
2022-11-21T01:25:16.467Z,36.30
2022-11-21T01:26:16.464Z,31.70
2022-11-21T01:27:16.466Z,33.50
2022-11-21T01:28:16.437Z,35.40
2022-11-21T01:29:16.432Z,31.00
2022-11-21T01:30:16.421Z,33.30
2022-11-21T01:31:16.407Z,33.90
2022-11-21T01:32:16.406Z,32.00
2022-11-21T01:33:25.499Z,38.00
2022-11-21T01:34:16.386Z,35.20
2022-11-21T01:35:16.586Z,35.60
2022-11-21T01:36:16.339Z,38.50
2022-11-21T01:37:16.356Z,33.50
2022-11-21T01:38:16.328Z,36.00
2022-11-21T01:39:16.304Z,38.80
2022-11-21T01:40:16.316Z,35.90
2022-11-21T01:41:16.315Z,38.30
2022-11-21T01:42:16.281Z,36.10
2022-11-21T01:43:16.265Z,34.70
2022-11-21T01:44:16.273Z,39.60
2022-11-21T01:45:16.257Z,36.30
2022-11-21T01:46:16.273Z,38.10
2022-11-21T01:47:16.247Z,35.10
2022-11-21T01:48:16.229Z,36.90
2022-11-21T01:49:16.363Z,37.90
2022-11-21T01:50:16.210Z,34.90
2022-11-21T01:51:16.194Z,36.70
2022-11-21T01:52:16.190Z,39.00
2022-11-21T01:53:16.179Z,40.80
2022-11-21T01:54:16.253Z,37.70
2022-11-21T01:55:16.140Z,36.40
2022-11-21T01:56:16.139Z,37.20
2022-11-21T01:57:16.119Z,39.90
2022-11-21T01:58:16.141Z,35.60
2022-11-21T01:59:16.115Z,38.80
2022-11-21T02:00:16.091Z,43.00
2022-11-21T02:01:16.166Z,41.50
2022-11-21T02:02:16.255Z,39.00
2022-11-21T02:03:16.051Z,38.80
2022-11-21T02:04:16.063Z,36.60
2022-11-21T02:05:16.033Z,39.10
2022-11-21T02:06:16.028Z,36.90
2022-11-21T02:07:17.064Z,38.10
2022-11-21T02:08:16.003Z,38.10
2022-11-21T02:09:15.991Z,41.10
2022-11-21T02:10:16.005Z,40.60
2022-11-21T02:11:15.969Z,40.90
2022-11-21T02:12:15.982Z,37.00
2022-11-21T02:13:15.954Z,40.50
2022-11-21T02:14:15.967Z,40.90
2022-11-21T02:15:15.928Z,46.40
2022-11-21T02:16:15.943Z,45.70
2022-11-21T02:17:15.926Z,44.10
2022-11-21T02:18:15.890Z,43.50
2022-11-21T02:19:15.906Z,49.10
2022-11-21T02:20:15.878Z,50.70
2022-11-21T02:21:15.861Z,46.70
2022-11-21T02:22:15.881Z,46.80
2022-11-21T02:23:15.839Z,47.80
2022-11-21T02:24:15.864Z,42.60
2022-11-21T02:25:15.814Z,40.20
2022-11-21T02:26:15.852Z,39.80
2022-11-21T02:27:15.811Z,40.50
2022-11-21T02:28:15.785Z,42.00
2022-11-21T02:29:15.777Z,38.40
2022-11-21T02:30:15.781Z,38.80
2022-11-21T02:31:15.753Z,38.40
2022-11-21T02:32:15.743Z,36.90
2022-11-21T02:33:23.241Z,38.20
2022-11-21T02:34:15.726Z,42.20
2022-11-21T02:35:15.717Z,38.80
2022-11-21T02:36:15.706Z,38.60
2022-11-21T02:37:15.712Z,42.60
2022-11-21T02:38:15.687Z,45.90
2022-11-21T02:39:15.691Z,43.30
2022-11-21T02:40:15.679Z,45.20
2022-11-21T02:41:15.643Z,42.20
2022-11-21T02:42:15.652Z,50.30
2022-11-21T02:43:15.660Z,44.80
2022-11-21T02:44:15.613Z,42.30
2022-11-21T02:45:15.625Z,46.90
2022-11-21T02:46:15.607Z,47.70
2022-11-21T02:47:15.580Z,43.90
2022-11-21T02:48:15.807Z,37.40
2022-11-21T02:49:15.568Z,40.20
2022-11-21T02:50:15.574Z,41.20
2022-11-21T02:51:15.533Z,39.20
2022-11-21T02:52:15.534Z,36.90
2022-11-21T02:53:15.535Z,40.50
2022-11-21T02:54:15.505Z,38.70
2022-11-21T02:55:15.511Z,39.20
2022-11-21T02:56:15.478Z,39.90
2022-11-21T02:57:16.150Z,39.80
2022-11-21T02:58:15.459Z,40.00
2022-11-21T02:59:15.716Z,37.60
2022-11-21T03:00:15.460Z,39.20
2022-11-21T03:01:15.497Z,41.40
2022-11-21T03:02:15.434Z,42.80
2022-11-21T03:03:15.409Z,38.60
2022-11-21T03:04:15.408Z,40.20
2022-11-21T03:05:15.406Z,39.30
2022-11-21T03:06:15.537Z,40.30
2022-11-21T03:07:15.405Z,39.90
2022-11-21T03:08:15.437Z,37.60
2022-11-21T03:09:15.342Z,38.10
2022-11-21T03:10:15.352Z,36.80
2022-11-21T03:11:15.339Z,37.60
2022-11-21T03:12:15.318Z,36.40
2022-11-21T03:13:15.302Z,35.60
2022-11-21T03:14:15.294Z,37.90
2022-11-21T03:15:15.285Z,36.80
2022-11-21T03:16:15.297Z,37.20
2022-11-21T03:17:15.255Z,35.30
2022-11-21T03:18:15.273Z,40.90
2022-11-21T03:19:15.244Z,36.50
2022-11-21T03:20:15.230Z,39.10
2022-11-21T03:21:15.461Z,38.70
2022-11-21T03:22:15.203Z,38.70
2022-11-21T03:23:15.191Z,38.70
2022-11-21T03:24:15.183Z,43.90
2022-11-21T03:25:15.197Z,39.60
2022-11-21T03:26:15.331Z,39.90
2022-11-21T03:27:15.150Z,42.50
2022-11-21T03:28:15.149Z,46.40
2022-11-21T03:29:15.124Z,40.00
2022-11-21T03:30:15.128Z,34.30
2022-11-21T03:31:15.107Z,36.70
2022-11-21T03:32:15.092Z,40.30
2022-11-21T03:33:23.612Z,40.90
2022-11-21T03:34:15.080Z,48.80
2022-11-21T03:35:15.061Z,44.70
2022-11-21T03:36:15.053Z,42.20
2022-11-21T03:37:15.048Z,37.90
2022-11-21T03:38:15.054Z,36.30
2022-11-21T03:39:15.028Z,37.70
2022-11-21T03:40:15.009Z,38.00
2022-11-21T03:41:15.024Z,37.60
2022-11-21T03:42:14.987Z,39.90
2022-11-21T03:43:14.976Z,38.40
2022-11-21T03:44:14.982Z,36.30
2022-11-21T03:45:15.676Z,38.70
2022-11-21T03:46:14.943Z,40.90
2022-11-21T03:47:14.929Z,42.80
2022-11-21T03:48:14.955Z,47.30
2022-11-21T03:49:14.926Z,43.50
2022-11-21T03:50:14.959Z,45.70
2022-11-21T03:51:14.905Z,43.40
2022-11-21T03:52:14.892Z,42.00
2022-11-21T03:53:14.864Z,38.80
2022-11-21T03:54:14.863Z,36.10
2022-11-21T03:55:14.866Z,37.60
2022-11-21T03:56:14.835Z,37.70
2022-11-21T03:57:14.820Z,42.10
2022-11-21T03:58:14.808Z,39.80
2022-11-21T03:59:14.816Z,43.20
2022-11-21T04:00:14.808Z,45.50
2022-11-21T04:01:14.854Z,44.50
2022-11-21T04:02:14.780Z,40.60
2022-11-21T04:03:14.778Z,39.60
2022-11-21T04:04:14.751Z,40.10
2022-11-21T04:05:14.740Z,42.40
2022-11-21T04:06:14.750Z,42.90
2022-11-21T04:07:14.770Z,43.50
2022-11-21T04:08:14.707Z,39.70
2022-11-21T04:09:14.700Z,38.40
2022-11-21T04:10:14.724Z,38.30
2022-11-21T04:11:14.676Z,36.40
2022-11-21T04:12:14.744Z,35.70
2022-11-21T04:13:14.651Z,42.00
2022-11-21T04:14:14.639Z,43.10
2022-11-21T04:15:14.667Z,40.40
2022-11-21T04:16:14.622Z,42.30
2022-11-21T04:17:14.634Z,41.00
2022-11-21T04:18:14.621Z,37.10
2022-11-21T04:19:14.586Z,40.10
2022-11-21T04:20:14.594Z,44.20
2022-11-21T04:21:14.559Z,43.00
2022-11-21T04:22:14.557Z,38.70
2022-11-21T04:23:14.544Z,39.20
2022-11-21T04:24:14.542Z,41.50
2022-11-21T04:25:14.561Z,45.00
2022-11-21T04:26:14.520Z,39.80
2022-11-21T04:27:14.496Z,40.50
2022-11-21T04:28:14.488Z,40.40
2022-11-21T04:29:14.482Z,37.80
2022-11-21T04:30:14.484Z,37.70
2022-11-21T04:31:14.470Z,39.90
2022-11-21T04:32:14.447Z,38.90
2022-11-21T04:33:21.961Z,36.60
2022-11-21T04:34:14.434Z,35.90
2022-11-21T04:35:14.415Z,41.10
2022-11-21T04:36:14.408Z,42.40
2022-11-21T04:37:14.475Z,41.70
2022-11-21T04:38:14.394Z,42.40
2022-11-21T04:39:14.367Z,42.80
2022-11-21T04:40:14.368Z,43.80
2022-11-21T04:41:14.385Z,38.30
2022-11-21T04:42:14.332Z,36.70
2022-11-21T04:43:14.323Z,36.50
2022-11-21T04:44:14.314Z,40.40
2022-11-21T04:45:14.317Z,39.30
2022-11-21T04:46:14.320Z,40.80
2022-11-21T04:47:14.293Z,41.30
2022-11-21T04:48:14.276Z,47.10
2022-11-21T04:49:14.273Z,38.90
2022-11-21T04:50:14.247Z,42.90
2022-11-21T04:51:14.245Z,40.70
2022-11-21T04:52:14.261Z,42.00
2022-11-21T04:53:14.224Z,44.90
2022-11-21T04:54:14.209Z,38.00
2022-11-21T04:55:14.199Z,36.50
2022-11-21T04:56:14.176Z,38.10
2022-11-21T04:57:14.186Z,40.20
2022-11-21T04:58:14.179Z,40.90
2022-11-21T04:59:14.176Z,41.30
2022-11-21T05:00:14.139Z,43.80
2022-11-21T05:01:14.215Z,47.70
2022-11-21T05:02:14.141Z,46.60
2022-11-21T05:03:14.125Z,45.80
2022-11-21T05:04:14.096Z,41.10
2022-11-21T05:05:14.095Z,39.30
2022-11-21T05:06:14.080Z,38.70
2022-11-21T05:07:14.183Z,40.00
2022-11-21T05:08:14.054Z,38.90
2022-11-21T05:09:14.055Z,42.20
2022-11-21T05:10:14.037Z,43.60
2022-11-21T05:11:14.031Z,39.00
2022-11-21T05:12:14.032Z,37.60
2022-11-21T05:13:13.999Z,43.90
2022-11-21T05:14:14.007Z,43.50
2022-11-21T05:15:13.979Z,43.40
2022-11-21T05:16:13.966Z,41.20
2022-11-21T05:17:13.982Z,41.50
2022-11-21T05:18:13.948Z,46.30
2022-11-21T05:19:13.937Z,45.60
2022-11-21T05:20:13.925Z,47.00
2022-11-21T05:21:13.915Z,46.70
2022-11-21T05:22:13.923Z,44.80
2022-11-21T05:23:13.903Z,42.20
2022-11-21T05:24:13.875Z,45.50
2022-11-21T05:25:13.893Z,40.40
2022-11-21T05:26:13.862Z,44.00
2022-11-21T05:27:13.868Z,40.30
2022-11-21T05:28:13.841Z,41.30
2022-11-21T05:29:13.834Z,41.30
2022-11-21T05:30:13.821Z,40.50
2022-11-21T05:31:13.800Z,40.70
2022-11-21T05:32:13.825Z,44.00
2022-11-21T05:33:20.305Z,39.50
2022-11-21T05:34:13.766Z,41.90
2022-11-21T05:35:13.760Z,40.40
2022-11-21T05:36:13.773Z,42.00
2022-11-21T05:37:13.753Z,42.50
2022-11-21T05:38:13.733Z,42.90
2022-11-21T05:39:13.709Z,44.10
2022-11-21T05:40:13.957Z,42.30
2022-11-21T05:41:13.692Z,42.50
2022-11-21T05:42:13.693Z,41.10
2022-11-21T05:43:13.677Z,44.30
2022-11-21T05:44:13.665Z,44.70
2022-11-21T05:45:13.661Z,46.00
2022-11-21T05:46:13.636Z,46.00
2022-11-21T05:47:13.666Z,44.50
2022-11-21T05:48:13.719Z,47.00
2022-11-21T05:49:13.615Z,46.00
2022-11-21T05:50:13.615Z,46.50
2022-11-21T05:51:13.588Z,44.70
2022-11-21T05:52:13.596Z,48.70
2022-11-21T05:53:13.566Z,37.90
2022-11-21T05:54:13.566Z,48.60
2022-11-21T05:55:13.550Z,43.40
2022-11-21T05:56:13.559Z,42.10
2022-11-21T05:57:13.533Z,43.60
2022-11-21T05:58:13.536Z,46.70
2022-11-21T05:59:13.510Z,44.80
2022-11-21T06:00:13.512Z,46.30
2022-11-21T06:01:13.503Z,44.00
2022-11-21T06:02:13.502Z,46.00
2022-11-21T06:03:13.521Z,50.50
2022-11-21T06:04:13.495Z,52.60
2022-11-21T06:05:13.446Z,51.30
2022-11-21T06:06:13.441Z,51.00
2022-11-21T06:07:13.464Z,50.80
2022-11-21T06:08:13.400Z,49.80
2022-11-21T06:09:13.476Z,48.60
2022-11-21T06:10:13.391Z,54.80
2022-11-21T06:11:13.381Z,56.10
2022-11-21T06:12:13.359Z,49.80
2022-11-21T06:13:13.351Z,48.00
2022-11-21T06:14:13.356Z,44.70
2022-11-21T06:15:13.573Z,46.30
2022-11-21T06:16:13.354Z,41.50
2022-11-21T06:17:13.312Z,42.00
2022-11-21T06:18:13.329Z,45.90
2022-11-21T06:19:13.783Z,42.60
2022-11-21T06:20:13.296Z,41.60
2022-11-21T06:21:13.275Z,39.80
2022-11-21T06:22:13.254Z,51.00
2022-11-21T06:23:13.502Z,48.90
2022-11-21T06:24:16.012Z,46.10
2022-11-21T06:25:13.237Z,44.40
2022-11-21T06:26:13.248Z,43.30
2022-11-21T06:27:13.223Z,50.40
2022-11-21T06:28:13.184Z,47.70
2022-11-21T06:29:13.210Z,46.40
2022-11-21T06:30:16.471Z,45.70
2022-11-21T06:31:13.169Z,45.10
2022-11-21T06:32:13.209Z,46.30
2022-11-21T06:33:13.141Z,43.20
2022-11-21T06:34:13.141Z,43.80
2022-11-21T06:35:13.292Z,42.90
2022-11-21T06:36:13.099Z,42.90
2022-11-21T06:37:13.095Z,46.70
2022-11-21T06:38:13.094Z,41.50
2022-11-21T06:39:13.068Z,43.10
2022-11-21T06:40:13.072Z,46.30
2022-11-21T06:41:13.055Z,47.50
2022-11-21T06:42:13.039Z,54.70
2022-11-21T06:43:13.030Z,53.50
2022-11-21T06:44:13.021Z,49.10
2022-11-21T06:45:13.054Z,48.40
2022-11-21T06:46:12.991Z,51.90
2022-11-21T06:47:12.992Z,49.90
2022-11-21T06:48:12.975Z,50.80
2022-11-21T06:49:12.986Z,49.60
2022-11-21T06:50:13.048Z,46.70
2022-11-21T06:51:12.937Z,46.00
2022-11-21T06:52:12.980Z,46.90
2022-11-21T06:53:12.916Z,48.20
2022-11-21T06:54:16.737Z,47.50
2022-11-21T06:55:12.919Z,49.80
2022-11-21T06:56:12.884Z,46.20
2022-11-21T06:57:12.879Z,47.00
2022-11-21T06:58:12.883Z,49.70
2022-11-21T06:59:12.864Z,50.80
2022-11-21T07:00:12.884Z,49.00
2022-11-21T07:01:12.889Z,46.00
2022-11-21T07:02:12.849Z,44.80
2022-11-21T07:03:12.833Z,48.50
2022-11-21T07:04:12.801Z,47.80
2022-11-21T07:05:12.824Z,43.80
2022-11-21T07:06:13.017Z,43.90
2022-11-21T07:07:12.831Z,43.30
2022-11-21T07:08:13.521Z,52.40
2022-11-21T07:10:12.746Z,50.70
2022-11-21T07:11:28.072Z,50.00
2022-11-21T07:12:12.739Z,53.20
2022-11-21T07:13:12.710Z,48.70
2022-11-21T07:14:12.694Z,48.20
2022-11-21T07:15:12.685Z,50.80
2022-11-21T07:16:12.666Z,49.20
2022-11-21T07:17:12.765Z,51.00
2022-11-21T07:18:12.670Z,51.20
2022-11-21T07:19:12.641Z,48.50
2022-11-21T07:20:12.629Z,48.30
2022-11-21T07:21:12.617Z,51.10
2022-11-21T07:22:12.617Z,51.00
2022-11-21T07:23:12.592Z,52.70
2022-11-21T07:24:12.580Z,49.40
2022-11-21T07:25:12.582Z,52.80
2022-11-21T07:26:12.577Z,50.40
2022-11-21T07:27:12.561Z,52.40
2022-11-21T07:28:12.554Z,52.20
2022-11-21T07:29:12.542Z,55.90
2022-11-21T07:30:12.531Z,56.30
2022-11-21T07:31:14.092Z,56.60
2022-11-21T07:32:12.498Z,53.00
2022-11-21T07:33:21.026Z,53.70
2022-11-21T07:34:12.497Z,54.90
2022-11-21T07:35:12.463Z,48.20
2022-11-21T07:36:12.459Z,52.60
2022-11-21T07:37:12.463Z,55.80
2022-11-21T07:38:12.462Z,53.20
2022-11-21T07:39:12.428Z,54.40
2022-11-21T07:40:12.426Z,58.20
2022-11-21T07:41:12.396Z,52.70
2022-11-21T07:42:12.388Z,55.50
2022-11-21T07:43:12.394Z,59.10
2022-11-21T07:44:12.431Z,54.40
2022-11-21T07:45:12.363Z,58.50
2022-11-21T07:46:12.349Z,54.70
2022-11-21T07:47:12.344Z,55.30
2022-11-21T07:48:12.336Z,49.10
2022-11-21T07:49:12.337Z,54.50
2022-11-21T07:50:12.316Z,52.70
2022-11-21T07:51:12.321Z,45.90
2022-11-21T07:52:12.272Z,47.00
2022-11-21T07:53:12.289Z,50.10
2022-11-21T07:54:12.265Z,51.50
2022-11-21T07:55:12.249Z,52.00
2022-11-21T07:56:12.235Z,48.70
2022-11-21T07:57:12.248Z,47.70
2022-11-21T07:58:12.229Z,50.20
2022-11-21T07:59:12.205Z,52.60
2022-11-21T08:00:12.207Z,53.10
2022-11-21T08:01:12.287Z,52.90
2022-11-21T08:02:12.223Z,58.90
2022-11-21T08:03:12.496Z,52.10
2022-11-21T08:04:12.184Z,55.10
2022-11-21T08:05:12.163Z,48.40
2022-11-21T08:06:12.127Z,52.40
2022-11-21T08:07:12.197Z,64.30
2022-11-21T08:08:12.136Z,53.00
2022-11-21T08:09:12.118Z,54.40
2022-11-21T08:10:12.118Z,51.90
2022-11-21T08:11:12.078Z,54.20
2022-11-21T08:12:12.088Z,48.60
2022-11-21T08:13:12.097Z,53.50
2022-11-21T08:14:12.044Z,52.40
2022-11-21T08:15:12.033Z,55.20
2022-11-21T08:16:12.119Z,59.10
2022-11-21T08:17:11.998Z,57.00
2022-11-21T08:18:12.024Z,56.50
2022-11-21T08:19:12.031Z,57.30
2022-11-21T08:20:12.000Z,57.00
2022-11-21T08:21:15.711Z,64.10
2022-11-21T08:22:11.971Z,61.20
2022-11-21T08:23:12.003Z,59.20
2022-11-21T08:24:11.954Z,65.80
2022-11-21T08:25:11.928Z,65.20
2022-11-21T08:26:11.921Z,64.80
2022-11-21T08:27:11.911Z,63.40
2022-11-21T08:28:11.902Z,68.00
2022-11-21T08:29:11.884Z,61.70
2022-11-21T08:30:11.886Z,70.10
2022-11-21T08:31:11.855Z,64.90
2022-11-21T08:32:11.862Z,66.40
2022-11-21T08:33:19.789Z,64.30
2022-11-21T08:34:14.653Z,68.80
2022-11-21T08:35:11.824Z,70.00
2022-11-21T08:36:11.804Z,74.60
2022-11-21T08:37:12.038Z,67.90
2022-11-21T08:38:11.783Z,63.90
2022-11-21T08:39:11.762Z,68.70
2022-11-21T08:40:11.766Z,70.60
2022-11-21T08:41:16.232Z,74.60
2022-11-21T08:42:11.748Z,76.00
2022-11-21T08:43:11.772Z,68.80
2022-11-21T08:44:14.256Z,78.50
2022-11-21T08:45:11.759Z,84.20
2022-11-21T08:46:11.718Z,77.20
2022-11-21T08:47:11.710Z,76.70
2022-11-21T08:48:11.706Z,76.70
2022-11-21T08:49:11.684Z,83.60
2022-11-21T08:50:11.666Z,83.00
2022-11-21T08:51:11.669Z,85.50
2022-11-21T08:52:11.637Z,85.60
2022-11-21T08:53:11.623Z,86.00
2022-11-21T08:54:11.623Z,86.00
2022-11-21T08:55:11.605Z,91.00
2022-11-21T08:56:12.555Z,83.00
2022-11-21T08:57:11.595Z,93.00
2022-11-21T08:58:11.589Z,83.30
2022-11-21T08:59:11.572Z,81.10
2022-11-21T09:00:11.609Z,78.30
2022-11-21T09:01:11.546Z,81.50
2022-11-21T09:02:11.607Z,79.80
2022-11-21T09:03:12.341Z,83.60
2022-11-21T09:04:11.511Z,87.90
2022-11-21T09:05:11.502Z,88.40
2022-11-21T09:06:11.502Z,89.50
2022-11-21T09:07:11.550Z,85.50
2022-11-21T09:08:11.854Z,90.80
2022-11-21T09:09:11.990Z,82.80
2022-11-21T09:10:11.456Z,86.20
2022-11-21T09:11:12.234Z,96.10
2022-11-21T09:12:11.431Z,79.10
2022-11-21T09:13:11.436Z,80.30
2022-11-21T09:14:11.410Z,87.70
2022-11-21T09:15:11.439Z,93.20
2022-11-21T09:16:12.701Z,88.90
2022-11-21T09:17:11.376Z,81.70
2022-11-21T09:18:12.152Z,84.50
2022-11-21T09:19:11.351Z,85.40
2022-11-21T09:20:11.416Z,81.80
2022-11-21T09:21:11.325Z,87.40
2022-11-21T09:22:11.320Z,70.80
2022-11-21T09:23:11.345Z,77.90
2022-11-21T09:24:11.296Z,79.80
2022-11-21T09:25:11.359Z,81.30
2022-11-21T09:26:11.267Z,80.70
2022-11-21T09:27:11.285Z,74.50
2022-11-21T09:28:11.258Z,78.30
2022-11-21T09:29:11.244Z,71.80
2022-11-21T09:30:11.243Z,73.70
2022-11-21T09:31:11.220Z,71.10
2022-11-21T09:32:11.233Z,75.30
2022-11-21T09:33:11.200Z,69.50
2022-11-21T09:34:11.237Z,76.70
2022-11-21T09:35:11.200Z,70.80
2022-11-21T09:36:11.159Z,65.10
2022-11-21T09:37:11.141Z,68.40
2022-11-21T09:38:11.138Z,67.50
2022-11-21T09:39:11.129Z,70.40
2022-11-21T09:40:11.158Z,70.20
2022-11-21T09:41:11.106Z,65.80
2022-11-21T09:42:11.107Z,66.90
2022-11-21T09:43:11.141Z,65.00
2022-11-21T09:44:11.203Z,71.40
2022-11-21T09:45:11.054Z,66.50
2022-11-21T09:46:11.052Z,67.10
2022-11-21T09:47:11.032Z,69.30
2022-11-21T09:48:11.020Z,71.90
2022-11-21T09:49:11.062Z,69.60
2022-11-21T09:50:11.039Z,69.50
2022-11-21T09:51:10.989Z,64.10
2022-11-21T09:52:11.005Z,67.00
2022-11-21T09:53:10.988Z,62.10
2022-11-21T09:54:14.076Z,61.40
2022-11-21T09:55:10.962Z,60.50
2022-11-21T09:56:10.971Z,63.60
2022-11-21T09:57:10.936Z,65.00
2022-11-21T09:58:10.974Z,61.70
2022-11-21T09:59:10.938Z,63.20
2022-11-21T10:00:10.898Z,66.50
2022-11-21T10:01:10.997Z,67.60
2022-11-21T10:02:12.383Z,69.30
2022-11-21T10:03:10.868Z,73.90
2022-11-21T10:04:10.870Z,70.00
2022-11-21T10:05:10.860Z,66.20
2022-11-21T10:06:10.989Z,67.70
2022-11-21T10:07:10.866Z,67.20
2022-11-21T10:08:10.817Z,67.90
2022-11-21T10:09:10.924Z,64.90
2022-11-21T10:10:10.807Z,66.60
2022-11-21T10:11:19.132Z,67.70
2022-11-21T10:12:10.777Z,73.20
2022-11-21T10:13:10.918Z,67.40
2022-11-21T10:14:10.832Z,70.50
2022-11-21T10:15:10.753Z,68.60
2022-11-21T10:16:10.912Z,69.80
2022-11-21T10:17:10.714Z,71.60
2022-11-21T10:18:10.730Z,70.40
2022-11-21T10:19:10.705Z,72.30
2022-11-21T10:20:10.699Z,75.50
2022-11-21T10:21:10.721Z,73.70
2022-11-21T10:22:10.704Z,75.80
2022-11-21T10:23:10.643Z,73.20
2022-11-21T10:24:10.649Z,78.20
2022-11-21T10:25:10.632Z,75.00
2022-11-21T10:26:10.642Z,75.10
2022-11-21T10:27:10.634Z,70.70
2022-11-21T10:28:10.608Z,70.20
2022-11-21T10:29:10.634Z,74.30
2022-11-21T10:30:10.574Z,70.80
2022-11-21T10:31:10.566Z,70.80
2022-11-21T10:32:10.550Z,68.00
2022-11-21T10:33:10.555Z,77.00
2022-11-21T10:34:10.559Z,64.30
2022-11-21T10:35:10.539Z,65.80
2022-11-21T10:36:10.540Z,60.20
2022-11-21T10:37:11.900Z,70.40
2022-11-21T10:38:10.497Z,71.70
2022-11-21T10:39:10.480Z,70.30
2022-11-21T10:40:10.473Z,70.70
2022-11-21T10:41:10.634Z,70.90
2022-11-21T10:42:10.456Z,69.10
2022-11-21T10:43:10.456Z,71.60
2022-11-21T10:44:13.040Z,67.90
2022-11-21T10:45:10.526Z,72.70
2022-11-21T10:46:10.462Z,73.70
2022-11-21T10:47:10.414Z,67.50
2022-11-21T10:48:10.389Z,70.40
2022-11-21T10:49:10.385Z,71.20
2022-11-21T10:50:10.380Z,73.50
2022-11-21T10:51:10.366Z,68.90
2022-11-21T10:52:10.349Z,79.60
2022-11-21T10:53:10.339Z,75.10
2022-11-21T10:54:10.311Z,73.50
2022-11-21T10:55:10.488Z,72.60
2022-11-21T10:56:10.313Z,78.00
2022-11-21T10:57:10.324Z,75.10
2022-11-21T10:58:10.272Z,75.30
2022-11-21T10:59:10.266Z,72.60
2022-11-21T11:00:10.248Z,78.20
2022-11-21T11:01:10.300Z,81.00
2022-11-21T11:02:10.262Z,71.60
2022-11-21T11:03:10.220Z,77.80
2022-11-21T11:05:10.194Z,74.50
2022-11-21T11:06:10.189Z,73.90
2022-11-21T11:07:10.207Z,77.30
2022-11-21T11:08:10.174Z,76.30
2022-11-21T11:09:10.152Z,74.10
2022-11-21T11:10:10.128Z,71.90
2022-11-21T11:11:10.126Z,73.60
2022-11-21T11:12:10.138Z,71.20
2022-11-21T11:13:30.861Z,73.90
2022-11-21T11:14:10.114Z,72.10
2022-11-21T11:15:10.201Z,69.50
2022-11-21T11:16:10.077Z,73.90
2022-11-21T11:17:10.059Z,71.60
2022-11-21T11:18:10.048Z,75.10
2022-11-21T11:19:10.129Z,78.50
2022-11-21T11:20:10.051Z,77.20
2022-11-21T11:21:10.175Z,74.90
2022-11-21T11:22:10.002Z,79.40
2022-11-21T11:23:09.995Z,78.40
2022-11-21T11:24:09.995Z,76.50
2022-11-21T11:25:09.991Z,76.30
2022-11-21T11:26:10.014Z,79.00
2022-11-21T11:27:09.949Z,72.40
2022-11-21T11:28:09.940Z,78.10
2022-11-21T11:29:11.050Z,82.00
2022-11-21T11:30:09.941Z,81.20
2022-11-21T11:31:10.260Z,76.50
2022-11-21T11:32:09.919Z,77.70
2022-11-21T11:33:09.889Z,76.70
2022-11-21T11:34:09.882Z,75.50
2022-11-21T11:35:09.874Z,78.70
2022-11-21T11:36:09.859Z,78.20
2022-11-21T11:37:09.930Z,79.50
2022-11-21T11:38:10.028Z,80.80
2022-11-21T11:39:09.828Z,75.90
2022-11-21T11:40:09.824Z,80.60
2022-11-21T11:41:09.818Z,82.00
2022-11-21T11:42:15.300Z,81.80
2022-11-21T11:43:09.821Z,75.30
2022-11-21T11:44:09.772Z,81.80
2022-11-21T11:45:09.761Z,77.60
2022-11-21T11:46:09.759Z,81.80
2022-11-21T11:47:09.749Z,88.10
2022-11-21T11:48:09.749Z,86.30
2022-11-21T11:49:25.125Z,85.00
2022-11-21T11:50:09.713Z,87.60
2022-11-21T11:51:09.726Z,87.40
2022-11-21T11:52:09.700Z,88.60
2022-11-21T11:53:09.678Z,82.10
2022-11-21T11:54:09.678Z,88.80
2022-11-21T11:55:09.649Z,87.40
2022-11-21T11:56:09.659Z,85.70
2022-11-21T11:57:09.622Z,94.90
2022-11-21T11:58:09.649Z,88.40
2022-11-21T11:59:09.649Z,90.20
2022-11-21T12:00:09.613Z,91.20
2022-11-21T12:01:09.590Z,87.80
2022-11-21T12:02:12.004Z,94.00
2022-11-21T12:03:09.571Z,84.30
2022-11-21T12:04:09.597Z,80.60
2022-11-21T12:05:09.545Z,88.40
2022-11-21T12:06:09.770Z,91.30
2022-11-21T12:09:09.564Z,77.80
2022-11-21T12:10:09.515Z,84.90
2022-11-21T12:11:09.486Z,87.00
2022-11-21T12:12:09.466Z,79.10
2022-11-21T12:13:09.472Z,84.40
2022-11-21T12:14:09.446Z,87.20
2022-11-21T12:15:09.449Z,92.80
2022-11-21T12:16:13.457Z,77.20
2022-11-21T12:17:09.425Z,84.50
2022-11-21T12:18:09.414Z,83.00
2022-11-21T12:19:09.425Z,87.20
2022-11-21T12:20:09.390Z,82.30
2022-11-21T12:21:09.361Z,85.80
2022-11-21T12:22:09.365Z,81.60
2022-11-21T12:23:09.382Z,81.50
2022-11-21T12:24:09.339Z,78.90
2022-11-21T12:25:09.351Z,74.30
2022-11-21T12:26:09.313Z,73.80
2022-11-21T12:27:09.300Z,72.10
2022-11-21T12:28:09.295Z,76.00
2022-11-21T12:29:09.313Z,77.10
2022-11-21T12:30:09.282Z,73.00
2022-11-21T12:31:10.320Z,77.00
2022-11-21T12:32:09.242Z,74.40
2022-11-21T12:33:09.508Z,77.60
2022-11-21T12:34:09.249Z,68.80
2022-11-21T12:35:09.237Z,79.80
2022-11-21T12:36:17.341Z,82.70
2022-11-21T12:37:09.227Z,73.80
2022-11-21T12:38:09.412Z,76.10
2022-11-21T12:39:09.212Z,71.80
2022-11-21T12:40:09.184Z,77.90
2022-11-21T12:41:09.165Z,68.50
2022-11-21T12:42:09.149Z,76.60
2022-11-21T12:43:09.121Z,74.70
2022-11-21T12:44:09.107Z,71.90
2022-11-21T12:45:09.115Z,73.00
2022-11-21T12:46:09.094Z,74.30
2022-11-21T12:47:09.126Z,74.40
2022-11-21T12:48:09.082Z,76.60
2022-11-21T12:49:09.077Z,73.70
2022-11-21T12:50:09.063Z,80.10
2022-11-21T12:51:09.059Z,77.40
2022-11-21T12:52:09.106Z,76.90
2022-11-21T12:53:09.064Z,82.10
2022-11-21T12:54:09.009Z,80.50
2022-11-21T12:55:09.008Z,79.80
2022-11-21T12:56:08.997Z,78.80